createdAt,value
2022-11-16T00:46:45.360Z,52.83
2022-11-16T00:49:30.925Z,49.57
2022-11-16T00:52:16.367Z,46.65
2022-11-16T00:55:02.156Z,48.78
2022-11-16T00:57:47.651Z,47.20
2022-11-16T01:47:55.741Z,41.65
2022-11-16T01:50:46.046Z,41.53
2022-11-16T01:53:31.472Z,39.60
2022-11-16T01:56:17.047Z,38.50
2022-11-16T01:59:17.950Z,39.75
2022-11-16T02:46:35.249Z,37.33
2022-11-16T02:49:25.010Z,35.58
2022-11-16T02:52:11.254Z,34.80
2022-11-16T02:54:56.813Z,36.78
2022-11-16T02:57:42.118Z,34.45
2022-11-16T03:47:47.894Z,32.45
2022-11-16T03:50:33.740Z,31.60
2022-11-16T03:53:20.320Z,30.43
2022-11-16T03:56:05.649Z,32.17
2022-11-16T03:58:50.999Z,29.73
2022-11-16T04:46:16.118Z,28.73
2022-11-16T04:49:01.721Z,28.67
2022-11-16T04:51:47.031Z,27.85
2022-11-16T04:54:32.366Z,28.77
2022-11-16T04:57:17.311Z,28.08
2022-11-16T05:00:04.472Z,26.60
2022-11-16T05:31:23.361Z,26.08
2022-11-16T05:34:09.464Z,27.27
2022-11-16T05:36:54.868Z,24.95
2022-11-16T05:39:40.613Z,25.40
2022-11-16T05:42:26.125Z,25.15
2022-11-16T05:45:14.004Z,25.90
2022-11-16T05:48:02.351Z,25.92
2022-11-16T05:50:48.201Z,24.73
2022-11-16T05:53:40.099Z,23.77
2022-11-16T05:56:25.725Z,23.38
2022-11-16T05:59:16.497Z,24.88
2022-11-16T06:02:03.893Z,24.00
2022-11-16T06:04:50.316Z,22.20
2022-11-16T06:07:35.792Z,23.33
2022-11-16T06:10:21.280Z,24.00
2022-11-16T06:13:08.456Z,22.52
2022-11-16T06:15:53.922Z,22.88
2022-11-16T06:18:40.516Z,22.48
2022-11-16T06:21:26.737Z,23.23
2022-11-16T06:24:12.665Z,22.13
2022-11-16T06:26:57.523Z,22.58
2022-11-16T06:29:42.948Z,22.40
2022-11-16T06:32:28.176Z,23.10
2022-11-16T06:35:13.502Z,21.47
2022-11-16T06:37:58.654Z,20.88
2022-11-16T06:40:51.921Z,21.65
2022-11-16T06:43:37.639Z,21.27
2022-11-16T06:46:24.610Z,21.67
2022-11-16T06:49:11.207Z,21.80
2022-11-16T06:51:56.919Z,34.65
2022-11-16T06:54:42.378Z,36.38
2022-11-16T06:57:27.751Z,36.45
2022-11-16T07:00:13.771Z,38.10
2022-11-16T07:02:59.323Z,35.47
2022-11-16T07:05:44.911Z,30.83
2022-11-16T07:08:34.199Z,35.05
2022-11-16T07:11:20.349Z,30.75
2022-11-16T07:14:05.851Z,28.73
2022-11-16T07:16:56.313Z,27.13
2022-11-16T07:19:44.506Z,26.65
2022-11-16T07:22:29.778Z,26.73
2022-11-16T07:25:15.222Z,24.70
2022-11-16T07:28:00.485Z,26.02
2022-11-16T07:30:46.809Z,27.63
2022-11-16T07:33:38.649Z,25.33
2022-11-16T07:36:24.863Z,24.92
2022-11-16T07:39:12.309Z,24.48
2022-11-16T07:41:58.166Z,23.33
2022-11-16T07:45:01.758Z,23.80
2022-11-16T07:47:47.958Z,23.77
2022-11-16T07:50:40.879Z,28.60
2022-11-16T07:53:25.971Z,26.48
2022-11-16T07:56:11.931Z,26.13
2022-11-16T07:58:59.160Z,22.80
2022-11-16T08:01:46.655Z,23.88
2022-11-16T08:04:31.949Z,23.23
2022-11-16T08:07:17.798Z,21.63
2022-11-16T08:10:09.604Z,23.73
2022-11-16T08:12:55.263Z,21.30
2022-11-16T08:15:42.872Z,23.02
2022-11-16T08:18:28.865Z,19.77
2022-11-16T08:21:15.402Z,21.80
2022-11-16T08:24:01.721Z,20.23
2022-11-16T08:26:48.891Z,20.87
2022-11-16T08:29:35.179Z,19.30
2022-11-16T08:32:23.242Z,19.30
2022-11-16T08:35:09.121Z,18.63
2022-11-16T08:37:54.178Z,19.38
2022-11-16T08:40:39.625Z,20.17
2022-11-16T08:43:25.056Z,20.05
2022-11-16T08:46:11.537Z,21.83
2022-11-16T08:48:58.529Z,18.73
2022-11-16T08:51:43.989Z,19.38
2022-11-16T08:54:29.405Z,19.90
2022-11-16T08:57:14.708Z,17.23
2022-11-16T09:00:01.797Z,20.20
2022-11-16T09:02:46.877Z,18.90
2022-11-16T09:05:32.158Z,18.30
2022-11-16T09:08:17.095Z,17.07
2022-11-16T09:11:09.333Z,19.35
2022-11-16T09:13:55.437Z,19.88
2022-11-16T09:16:40.536Z,19.92
2022-11-16T09:19:25.537Z,17.90
2022-11-16T09:22:10.982Z,20.93
2022-11-16T09:24:55.797Z,18.85
2022-11-16T09:27:40.572Z,17.38
2022-11-16T09:30:25.476Z,17.98
2022-11-16T09:33:10.619Z,19.35
2022-11-16T09:35:56.563Z,19.53
2022-11-16T09:42:02.822Z,17.10
2022-11-16T09:44:57.471Z,17.23
2022-11-16T09:47:49.172Z,20.00
2022-11-16T09:50:34.526Z,17.30
2022-11-16T09:53:46.316Z,17.80
2022-11-16T09:56:35.209Z,17.92
2022-11-16T09:59:49.663Z,18.05
2022-11-16T10:02:37.146Z,17.75
2022-11-16T10:05:22.297Z,17.57
2022-11-16T10:08:17.330Z,17.10
2022-11-16T10:11:14.553Z,17.92
2022-11-16T10:14:05.228Z,17.42
2022-11-16T10:16:53.079Z,17.77
2022-11-16T10:19:45.263Z,17.20
2022-11-16T10:22:33.595Z,17.30
2022-11-16T10:25:23.840Z,17.55
2022-11-16T10:28:48.033Z,17.35
2022-11-16T10:31:39.170Z,15.95
2022-11-16T10:34:34.558Z,17.17
2022-11-16T10:37:20.394Z,15.77
2022-11-16T10:40:17.933Z,18.20
2022-11-16T10:43:12.202Z,16.55
2022-11-16T10:46:16.639Z,15.80
2022-11-16T10:49:08.677Z,14.87
2022-11-16T10:51:53.804Z,15.93
2022-11-16T10:54:44.034Z,16.50
2022-11-16T10:57:49.607Z,16.65
2022-11-16T11:00:39.603Z,16.85
2022-11-16T11:03:31.794Z,16.10
2022-11-16T11:06:17.290Z,15.02
2022-11-16T11:09:34.850Z,16.23
2022-11-16T11:12:39.119Z,15.90
2022-11-16T11:15:26.880Z,16.48
2022-11-16T11:18:15.472Z,16.23
2022-11-16T11:21:06.664Z,17.00
2022-11-16T11:23:52.884Z,15.50
2022-11-16T11:26:40.761Z,14.65
2022-11-16T11:29:33.136Z,15.32
2022-11-16T11:32:23.919Z,14.90
2022-11-16T11:35:21.680Z,15.80
2022-11-16T11:38:08.231Z,15.50
2022-11-16T11:40:58.515Z,15.45
2022-11-16T11:43:43.410Z,15.68
2022-11-16T11:46:56.026Z,13.57
2022-11-16T11:49:38.472Z,14.68
2022-11-16T11:52:31.639Z,14.80
2022-11-16T11:55:17.810Z,15.02
2022-11-16T11:58:04.359Z,15.00
2022-11-16T12:00:58.689Z,14.83
2022-11-16T12:03:56.011Z,15.55
2022-11-16T12:06:46.923Z,14.52
2022-11-16T12:09:58.084Z,14.70
2022-11-16T12:12:51.868Z,14.93
2022-11-16T12:16:09.654Z,13.87
2022-11-16T12:18:54.913Z,14.13
2022-11-16T12:21:43.167Z,12.90
2022-11-16T12:24:46.805Z,14.10
2022-11-16T12:27:41.062Z,13.98
2022-11-16T12:30:26.203Z,14.90
2022-11-16T12:33:10.953Z,13.90
2022-11-16T12:36:07.626Z,14.55
2022-11-16T12:38:58.563Z,13.40
2022-11-16T12:41:55.872Z,13.88
2022-11-16T12:44:41.357Z,14.70
2022-11-16T12:47:48.746Z,15.02
2022-11-16T12:50:52.451Z,13.93
2022-11-16T12:53:56.210Z,13.65
2022-11-16T12:56:49.548Z,13.10
2022-11-16T12:59:45.457Z,13.00
2022-11-16T13:02:46.653Z,14.05
2022-11-16T13:05:31.714Z,13.15
2022-11-16T13:08:35.858Z,12.38
2022-11-16T13:11:23.663Z,13.10
2022-11-16T13:14:13.219Z,12.20
2022-11-16T13:17:00.640Z,14.25
2022-11-16T13:19:47.457Z,12.48
2022-11-16T13:22:34.267Z,14.18
2022-11-16T13:25:24.469Z,12.70
2022-11-16T13:28:17.440Z,12.23
2022-11-16T13:31:11.320Z,13.00
2022-11-16T13:33:59.748Z,12.70
2022-11-16T13:36:46.171Z,11.98
2022-11-16T13:39:50.378Z,13.38
2022-11-16T13:42:38.749Z,13.13
2022-11-16T13:45:23.729Z,11.73
2022-11-16T13:48:19.796Z,12.98
2022-11-16T13:51:07.186Z,12.15
2022-11-16T13:56:58.781Z,12.70
2022-11-16T13:59:43.714Z,12.30
2022-11-16T14:02:30.110Z,12.65
2022-11-16T14:05:35.379Z,13.32
2022-11-16T14:08:20.565Z,12.05
2022-11-16T14:11:25.597Z,11.60
2022-11-16T14:14:11.481Z,12.13
2022-11-16T14:16:56.866Z,11.50
2022-11-16T14:19:47.400Z,12.07
2022-11-16T14:22:46.701Z,11.70
2022-11-16T14:25:45.265Z,11.70
2022-11-16T14:28:38.150Z,11.20
2022-11-16T14:31:27.091Z,11.65
2022-11-16T14:34:16.960Z,11.82
2022-11-16T14:37:03.235Z,11.50
2022-11-16T14:39:49.525Z,12.27
2022-11-16T14:43:01.860Z,11.65
2022-11-16T14:46:02.038Z,12.40
2022-11-16T14:48:47.763Z,10.85
2022-11-16T14:51:35.325Z,12.68
2022-11-16T14:54:42.563Z,12.27
2022-11-16T14:57:28.520Z,11.05
2022-11-16T15:00:20.900Z,11.10
2022-11-16T15:03:06.207Z,12.50
2022-11-16T15:05:51.721Z,11.25
2022-11-16T15:08:44.470Z,11.70
2022-11-16T15:12:07.325Z,10.85
2022-11-16T15:14:53.786Z,10.88
2022-11-16T15:17:39.743Z,12.00
2022-11-16T15:20:26.231Z,10.50
2022-11-16T15:23:15.082Z,11.97
2022-11-16T15:26:02.301Z,11.13
2022-11-16T15:28:50.120Z,10.57
2022-11-16T15:31:36.336Z,10.55
2022-11-16T15:34:21.450Z,11.65
2022-11-16T15:37:10.318Z,10.67
2022-11-16T15:39:56.866Z,11.65
2022-11-16T15:42:42.402Z,12.00
2022-11-16T15:45:29.351Z,11.05
2022-11-16T15:48:33.349Z,10.45
2022-11-16T15:51:23.212Z,11.37
2022-11-16T15:54:15.675Z,10.05
2022-11-16T15:57:08.220Z,12.32
2022-11-16T15:59:54.737Z,10.02
2022-11-16T16:02:43.634Z,9.98
2022-11-16T16:05:34.728Z,9.73
2022-11-16T16:08:26.546Z,9.45
2022-11-16T16:11:21.369Z,10.55
2022-11-16T16:14:10.877Z,9.80
2022-11-16T16:16:59.616Z,10.48
2022-11-16T16:19:45.639Z,10.00
2022-11-16T16:22:32.617Z,9.52
2022-11-16T16:25:28.802Z,9.63
2022-11-16T16:28:14.025Z,9.52
2022-11-16T16:30:58.999Z,9.43
2022-11-16T16:33:43.955Z,9.50
2022-11-16T16:36:28.753Z,10.00
2022-11-16T16:39:13.530Z,9.75
2022-11-16T16:41:58.508Z,12.30
2022-11-16T16:44:44.185Z,9.68
2022-11-16T16:47:29.671Z,10.70
2022-11-16T16:50:14.609Z,11.07
2022-11-16T16:52:59.443Z,15.98
2022-11-16T16:55:47.094Z,12.00
2022-11-16T16:58:32.267Z,9.35
2022-11-16T17:01:17.860Z,10.83
2022-11-16T17:04:03.308Z,13.20
2022-11-16T17:06:50.487Z,10.30
2022-11-16T17:09:35.778Z,11.25
2022-11-16T17:12:21.187Z,9.20
2022-11-16T17:15:06.768Z,9.60
2022-11-16T17:17:52.918Z,11.63
2022-11-16T17:20:41.343Z,10.68
2022-11-16T17:23:29.344Z,15.18
2022-11-16T17:26:14.246Z,10.20
2022-11-16T17:28:59.196Z,10.13
2022-11-16T17:31:46.347Z,11.43
2022-11-16T17:34:31.532Z,10.85
2022-11-16T17:37:16.584Z,11.18
2022-11-16T17:40:01.474Z,8.60
2022-11-16T17:42:46.199Z,9.20
2022-11-16T17:45:31.214Z,8.90
2022-11-16T17:48:16.656Z,9.82
2022-11-16T17:51:01.989Z,9.75
2022-11-16T17:53:47.212Z,10.45
2022-11-16T17:56:32.324Z,10.13
2022-11-16T17:59:17.854Z,9.38
2022-11-16T18:02:03.007Z,9.40
2022-11-16T18:04:51.082Z,12.05
2022-11-16T18:07:38.434Z,12.20
2022-11-16T18:10:24.212Z,11.97
2022-11-16T18:13:09.224Z,10.95
2022-11-16T18:15:54.170Z,12.57
2022-11-16T18:18:40.294Z,11.27
2022-11-16T18:21:25.939Z,12.63
2022-11-16T18:24:11.438Z,12.30
2022-11-16T18:26:56.591Z,11.60
2022-11-16T18:29:41.486Z,13.50
2022-11-16T18:32:26.331Z,12.23
2022-11-16T18:35:11.349Z,12.07
2022-11-16T18:37:56.109Z,12.93
2022-11-16T18:40:41.230Z,13.52
2022-11-16T18:43:26.160Z,12.82
2022-11-16T18:46:11.005Z,14.23
2022-11-16T18:48:56.210Z,16.75
2022-11-16T18:51:41.070Z,15.83
2022-11-16T18:54:25.919Z,37.97
2022-11-16T18:57:11.320Z,48.60
2022-11-16T18:59:56.971Z,72.47
2022-11-16T19:02:42.297Z,77.53
2022-11-16T19:05:27.148Z,65.97
2022-11-16T19:08:12.154Z,70.80
2022-11-16T19:11:02.795Z,62.42
2022-11-16T19:13:51.484Z,63.13
2022-11-16T19:16:36.819Z,63.88
2022-11-16T19:19:22.070Z,66.47
2022-11-16T19:22:07.218Z,68.35
2022-11-16T19:24:53.162Z,69.15
2022-11-16T19:27:38.612Z,73.30
2022-11-16T19:30:23.859Z,72.13
2022-11-16T19:33:09.070Z,70.07
2022-11-16T19:35:53.973Z,72.50
2022-11-16T19:38:39.413Z,69.88
2022-11-16T19:41:25.867Z,69.80
2022-11-16T19:44:11.460Z,66.18
2022-11-16T19:46:57.396Z,68.47
2022-11-16T19:49:42.552Z,68.18
2022-11-16T19:52:27.281Z,70.28
2022-11-16T19:55:12.252Z,65.70
2022-11-16T19:57:57.070Z,69.97
2022-11-16T20:00:42.027Z,70.87
2022-11-16T20:03:27.640Z,64.30
2022-11-16T20:06:13.046Z,63.92
2022-11-16T20:09:00.897Z,65.22
2022-11-16T20:11:46.304Z,64.97
2022-11-16T20:14:31.648Z,61.83
2022-11-16T20:17:17.171Z,61.15
2022-11-16T20:20:02.013Z,59.95
2022-11-16T20:22:47.603Z,57.97
2022-11-16T20:25:32.769Z,60.40
2022-11-16T20:28:17.645Z,55.20
2022-11-16T20:31:05.400Z,56.33
2022-11-16T20:34:00.357Z,58.85
2022-11-16T20:36:46.091Z,55.90
2022-11-16T20:39:30.932Z,59.78
2022-11-16T20:42:15.833Z,56.00
2022-11-16T20:45:00.890Z,54.65
2022-11-16T20:47:45.881Z,56.33
2022-11-16T20:50:31.254Z,52.53
2022-11-16T20:53:16.175Z,58.78
2022-11-16T20:56:02.643Z,59.40
2022-11-16T20:58:48.453Z,59.45
2022-11-16T21:01:33.807Z,54.35
2022-11-16T21:04:20.741Z,56.95
2022-11-16T21:07:06.254Z,53.20
2022-11-16T21:10:10.315Z,52.23
2022-11-16T21:13:14.372Z,51.20
2022-11-16T21:16:12.997Z,56.70
2022-11-16T21:18:58.616Z,49.60
2022-11-16T21:21:44.734Z,50.88
2022-11-16T21:24:32.177Z,55.77
2022-11-16T21:27:17.611Z,52.78
2022-11-16T21:30:02.989Z,50.10
2022-11-16T21:32:48.839Z,51.72
2022-11-16T21:35:33.958Z,50.60
2022-11-16T21:38:20.383Z,51.97
2022-11-16T21:41:06.353Z,52.80
2022-11-16T21:43:52.093Z,52.28
2022-11-16T21:46:37.068Z,43.97
2022-11-16T21:49:22.260Z,47.42
2022-11-16T21:52:07.908Z,46.40
2022-11-16T21:54:59.501Z,51.55
2022-11-16T21:57:44.654Z,44.63
2022-11-16T22:00:30.085Z,45.08
2022-11-16T22:03:15.806Z,46.10
2022-11-16T22:06:20.823Z,48.00
2022-11-16T22:09:05.756Z,46.70
2022-11-16T22:11:50.732Z,49.40
2022-11-16T22:14:35.789Z,41.78
2022-11-16T22:17:21.726Z,65.30
2022-11-16T22:20:07.217Z,43.73
2022-11-16T22:22:52.532Z,46.33
2022-11-16T22:25:38.060Z,45.22
2022-11-16T22:28:23.058Z,43.40
2022-11-16T22:31:12.541Z,43.15
2022-11-16T22:33:57.909Z,42.03
2022-11-16T22:36:42.741Z,40.95
2022-11-16T22:39:28.476Z,38.20
2022-11-16T22:42:13.611Z,37.72
2022-11-16T22:44:59.267Z,36.28
2022-11-16T22:47:44.949Z,36.83
2022-11-16T22:50:30.295Z,39.58
2022-11-16T22:53:15.710Z,37.22
2022-11-16T22:56:04.773Z,37.08
2022-11-16T22:58:50.527Z,36.28
2022-11-16T23:01:37.096Z,37.03
2022-11-16T23:04:22.211Z,38.10
2022-11-16T23:07:07.576Z,32.90
2022-11-16T23:09:52.937Z,32.95
2022-11-16T23:12:56.646Z,30.38
2022-11-16T23:47:07.239Z,28.10
2022-11-16T23:49:52.824Z,29.20
2022-11-16T23:52:38.084Z,30.38
2022-11-16T23:55:23.652Z,29.25
2022-11-16T23:58:13.677Z,27.25
